createdAt,value
2019-02-07T00:00:59.219Z,19.07
2019-02-07T00:03:26.636Z,17.35
2019-02-07T00:05:54.065Z,17.80
2019-02-07T00:08:21.651Z,15.93
2019-02-07T00:10:49.070Z,17.00
2019-02-07T00:13:16.495Z,15.70
2019-02-07T00:15:43.924Z,17.57
2019-02-07T00:18:11.341Z,18.12
2019-02-07T00:20:38.815Z,16.80
2019-02-07T00:23:06.316Z,17.87
2019-02-07T00:25:33.912Z,16.85
2019-02-07T00:28:01.324Z,17.62
2019-02-07T00:30:28.762Z,16.30
2019-02-07T00:32:56.168Z,17.65
2019-02-07T00:35:23.646Z,16.20
2019-02-07T00:37:51.087Z,15.68
2019-02-07T00:40:21.287Z,16.80
2019-02-07T00:42:49.049Z,16.93
2019-02-07T00:45:17.155Z,15.55
2019-02-07T00:47:44.631Z,16.90
2019-02-07T00:50:13.120Z,16.48
2019-02-07T00:52:40.609Z,16.73
2019-02-07T00:55:09.568Z,15.32
2019-02-07T00:57:36.986Z,16.73
2019-02-07T01:00:05.928Z,16.30
2019-02-07T01:02:33.354Z,18.85
2019-02-07T01:05:00.754Z,17.45
2019-02-07T01:07:28.185Z,16.17
2019-02-07T01:09:55.593Z,15.30
2019-02-07T01:12:22.999Z,18.10
2019-02-07T01:15:01.427Z,15.50
2019-02-07T01:17:19.833Z,17.67
2019-02-07T01:19:47.265Z,15.53
2019-02-07T01:22:14.676Z,13.78
2019-02-07T01:24:42.190Z,16.57
2019-02-07T01:27:09.585Z,16.37
2019-02-07T01:29:37.075Z,16.05
2019-02-07T01:32:04.751Z,18.90
2019-02-07T01:34:32.445Z,16.55
2019-02-07T01:36:59.842Z,15.30
2019-02-07T01:39:27.283Z,16.20
2019-02-07T01:41:54.684Z,17.07
2019-02-07T01:44:22.099Z,17.37
2019-02-07T01:46:49.528Z,17.40
2019-02-07T01:49:16.996Z,16.93
2019-02-07T01:51:44.440Z,15.80
2019-02-07T01:54:11.855Z,18.60
2019-02-07T01:56:39.256Z,16.82
2019-02-07T01:59:06.675Z,16.20
2019-02-07T02:01:34.181Z,15.72
2019-02-07T02:04:01.583Z,14.70
2019-02-07T02:06:29.003Z,16.70
2019-02-07T02:08:56.685Z,16.12
2019-02-07T02:11:24.124Z,17.98
2019-02-07T02:13:51.573Z,17.35
2019-02-07T02:16:19.031Z,17.50
2019-02-07T02:18:46.423Z,15.08
2019-02-07T02:21:13.897Z,16.32
2019-02-07T02:23:41.387Z,15.80
2019-02-07T02:26:09.053Z,17.17
2019-02-07T02:28:36.503Z,16.17
2019-02-07T02:31:03.997Z,16.30
2019-02-07T02:33:31.491Z,16.07
2019-02-07T02:35:58.903Z,17.70
2019-02-07T02:38:26.339Z,16.17
2019-02-07T02:40:53.727Z,15.98
2019-02-07T02:43:22.249Z,17.00
2019-02-07T02:45:49.674Z,16.73
2019-02-07T02:48:17.141Z,18.10
2019-02-07T02:50:44.630Z,17.32
2019-02-07T02:53:12.102Z,17.05
2019-02-07T02:55:41.170Z,16.48
2019-02-07T02:58:08.634Z,17.15
2019-02-07T03:00:47.173Z,15.23
2019-02-07T03:03:34.030Z,16.82
2019-02-07T03:06:03.096Z,17.30
2019-02-07T03:08:41.192Z,17.52
2019-02-07T03:11:26.579Z,17.20
2019-02-07T03:14:13.504Z,17.32
2019-02-07T03:16:58.946Z,17.73
2019-02-07T03:19:36.823Z,19.12
2019-02-07T03:22:22.175Z,18.37
2019-02-07T03:25:03.259Z,18.25
2019-02-07T03:27:50.437Z,15.90
2019-02-07T03:30:35.771Z,19.05
2019-02-07T03:33:10.513Z,18.67
2019-02-07T03:35:45.177Z,17.50
2019-02-07T03:38:16.936Z,17.87
2019-02-07T03:40:49.131Z,16.95
2019-02-07T03:43:33.022Z,17.40
2019-02-07T03:46:16.932Z,18.82
2019-02-07T03:48:54.941Z,17.35
2019-02-07T03:51:39.848Z,16.97
2019-02-07T03:54:23.550Z,17.87
2019-02-07T03:57:09.107Z,18.05
2019-02-07T03:59:40.691Z,18.17
2019-02-07T04:02:09.838Z,19.23
2019-02-07T04:04:47.548Z,18.75
2019-02-07T04:07:25.409Z,17.50
2019-02-07T04:10:10.449Z,17.82
2019-02-07T04:12:39.520Z,17.20
2019-02-07T04:15:11.172Z,17.37
2019-02-07T04:17:40.208Z,16.97
2019-02-07T04:20:26.588Z,19.42
2019-02-07T04:22:58.565Z,17.55
2019-02-07T04:25:44.969Z,16.48
2019-02-07T04:28:14.006Z,16.67
2019-02-07T04:30:43.050Z,16.20
2019-02-07T04:33:18.112Z,18.07
2019-02-07T04:35:47.176Z,16.50
2019-02-07T04:38:18.889Z,17.57
2019-02-07T04:40:50.742Z,16.73
2019-02-07T04:43:22.764Z,16.73
2019-02-07T04:45:57.595Z,15.13
2019-02-07T04:48:38.983Z,17.12
2019-02-07T04:51:11.166Z,16.30
2019-02-07T04:53:40.186Z,15.30
2019-02-07T04:56:11.888Z,17.48
2019-02-07T04:58:40.953Z,18.35
2019-02-07T05:01:22.113Z,15.48
2019-02-07T05:04:07.681Z,16.37
2019-02-07T05:06:53.077Z,17.32
2019-02-07T05:09:30.529Z,16.40
2019-02-07T05:12:01.245Z,15.88
2019-02-07T05:14:35.831Z,17.00
2019-02-07T05:17:16.732Z,15.05
2019-02-07T05:19:45.793Z,15.83
2019-02-07T05:22:29.947Z,15.32
2019-02-07T05:24:59.006Z,17.98
2019-02-07T05:27:39.952Z,15.20
2019-02-07T05:30:29.198Z,17.60
2019-02-07T05:33:04.044Z,18.12
2019-02-07T05:35:42.011Z,16.50
2019-02-07T05:38:13.759Z,15.85
2019-02-07T05:40:42.796Z,16.17
2019-02-07T05:43:11.869Z,16.60
2019-02-07T05:45:43.876Z,15.88
2019-02-07T05:48:13.184Z,16.48
2019-02-07T05:50:50.812Z,16.70
2019-02-07T05:53:22.975Z,18.32
2019-02-07T05:56:08.088Z,17.20
2019-02-07T05:58:53.184Z,17.57
2019-02-07T06:01:22.254Z,16.15
2019-02-07T06:03:53.700Z,18.35
2019-02-07T06:06:22.763Z,18.50
2019-02-07T06:09:03.856Z,18.48
2019-02-07T06:11:48.988Z,17.15
2019-02-07T06:14:35.899Z,17.32
2019-02-07T06:17:16.724Z,18.07
2019-02-07T06:19:48.728Z,17.57
2019-02-07T06:22:23.508Z,19.48
2019-02-07T06:25:01.348Z,17.65
2019-02-07T06:27:32.909Z,18.65
2019-02-07T06:30:07.821Z,20.17
2019-02-07T06:32:46.034Z,20.62
2019-02-07T06:35:15.125Z,17.65
2019-02-07T06:37:46.841Z,18.45
2019-02-07T06:40:15.988Z,18.60
2019-02-07T06:42:45.027Z,18.60
2019-02-07T06:45:30.693Z,20.65
2019-02-07T06:48:02.897Z,19.55
2019-02-07T06:50:48.286Z,17.02
2019-02-07T06:53:29.091Z,16.42
2019-02-07T06:56:04.400Z,17.35
2019-02-07T06:58:39.432Z,18.30
2019-02-07T07:01:17.456Z,17.07
2019-02-07T07:03:57.589Z,16.87
2019-02-07T07:06:34.662Z,17.00
2019-02-07T07:09:06.616Z,17.80
2019-02-07T07:11:38.196Z,15.58
2019-02-07T07:14:07.240Z,15.85
2019-02-07T07:16:36.508Z,16.50
2019-02-07T07:19:08.406Z,15.58
2019-02-07T07:21:37.488Z,14.87
2019-02-07T07:24:22.402Z,16.40
2019-02-07T07:26:54.484Z,16.65
2019-02-07T07:29:29.233Z,17.70
2019-02-07T07:31:58.295Z,16.87
2019-02-07T07:34:29.891Z,17.45
2019-02-07T07:37:01.851Z,16.52
2019-02-07T07:39:47.193Z,17.17
2019-02-07T07:42:18.798Z,16.45
2019-02-07T07:44:53.710Z,16.85
2019-02-07T07:47:22.836Z,17.05
2019-02-07T07:50:09.618Z,15.83
2019-02-07T07:52:38.675Z,15.60
2019-02-07T07:55:10.639Z,16.82
2019-02-07T07:57:42.255Z,17.52
2019-02-07T08:00:13.063Z,17.30
2019-02-07T08:02:42.154Z,15.78
2019-02-07T08:05:20.071Z,17.45
2019-02-07T08:07:49.159Z,16.87
2019-02-07T08:10:34.338Z,19.92
2019-02-07T08:13:15.405Z,15.53
2019-02-07T08:15:56.193Z,17.57
2019-02-07T08:18:25.265Z,16.97
2019-02-07T08:20:56.852Z,16.67
2019-02-07T08:23:25.920Z,17.00
2019-02-07T08:25:57.632Z,18.87
2019-02-07T08:28:29.419Z,17.05
2019-02-07T08:31:01.440Z,17.05
2019-02-07T08:33:39.398Z,18.62
2019-02-07T08:36:14.324Z,18.32
2019-02-07T08:38:49.939Z,18.55
2019-02-07T08:41:37.086Z,17.70
2019-02-07T08:44:20.875Z,18.67
2019-02-07T08:46:58.562Z,18.40
2019-02-07T08:49:33.608Z,19.87
2019-02-07T08:52:18.786Z,19.05
2019-02-07T08:54:53.674Z,19.27
2019-02-07T08:57:22.738Z,20.00
2019-02-07T09:00:03.433Z,21.17
2019-02-07T12:01:55.382Z,19.05
2019-02-07T12:04:30.369Z,18.98
2019-02-07T12:07:04.912Z,19.40
2019-02-07T12:09:41.022Z,20.62
2019-02-07T12:12:12.893Z,19.40
2019-02-07T12:14:41.929Z,18.87
2019-02-07T12:17:11.024Z,20.15
2019-02-07T12:19:47.787Z,19.80
2019-02-07T12:22:33.027Z,18.70
2019-02-07T12:25:10.938Z,19.52
2019-02-07T12:27:42.548Z,18.98
2019-02-07T12:30:24.971Z,17.62
2019-02-07T12:32:54.032Z,18.20
2019-02-07T12:35:35.005Z,18.87
2019-02-07T12:38:09.903Z,18.00
2019-02-07T12:40:44.762Z,19.45
2019-02-07T12:43:25.518Z,19.45
2019-02-07T12:46:00.622Z,20.17
2019-02-07T12:48:38.422Z,17.48
2019-02-07T12:51:24.399Z,17.27
2019-02-07T12:54:05.667Z,18.25
2019-02-07T12:56:34.722Z,17.70
2019-02-07T12:59:12.356Z,16.20
2019-02-07T13:01:44.048Z,18.10
2019-02-07T13:04:23.761Z,16.73
2019-02-07T13:06:58.459Z,17.75
2019-02-07T13:09:45.474Z,17.25
2019-02-07T13:12:20.089Z,16.87
2019-02-07T13:14:52.292Z,16.45
2019-02-07T13:17:21.392Z,17.20
2019-02-07T13:19:55.952Z,15.45
2019-02-07T13:22:28.038Z,15.65
2019-02-07T13:25:02.504Z,17.80
2019-02-07T13:27:31.566Z,14.28
2019-02-07T13:30:19.229Z,16.25
2019-02-07T13:32:50.263Z,15.72
2019-02-07T13:35:25.072Z,16.02
2019-02-07T13:38:09.191Z,16.05
2019-02-07T13:40:41.079Z,15.05
2019-02-07T13:43:10.207Z,15.70
2019-02-07T13:45:45.335Z,14.68
2019-02-07T13:48:24.469Z,15.13
2019-02-07T13:50:53.599Z,14.68
2019-02-07T13:53:25.627Z,14.05
2019-02-07T13:55:54.661Z,13.30
2019-02-07T13:58:39.836Z,16.02
2019-02-07T14:01:11.574Z,14.90
2019-02-07T14:03:46.456Z,13.85
2019-02-07T14:06:30.468Z,14.35
2019-02-07T14:09:02.064Z,13.00
2019-02-07T14:11:40.076Z,13.22
2019-02-07T14:14:11.832Z,13.48
2019-02-07T14:16:57.384Z,13.08
2019-02-07T14:19:42.675Z,12.18
2019-02-07T14:22:17.543Z,12.10
2019-02-07T14:24:52.642Z,12.65
2019-02-07T14:27:39.907Z,14.35
2019-02-07T14:30:13.307Z,13.80
2019-02-07T14:32:57.456Z,12.05
2019-02-07T14:35:29.274Z,12.93
2019-02-07T14:38:04.304Z,12.78
2019-02-07T14:40:33.367Z,13.50
2019-02-07T14:43:02.413Z,12.85
2019-02-07T14:45:37.181Z,13.40
2019-02-07T14:48:04.621Z,13.18
2019-02-07T14:50:32.047Z,12.58
2019-02-07T14:53:01.993Z,12.73
2019-02-07T14:55:28.570Z,15.10
2019-02-07T14:57:56.070Z,13.75
2019-02-07T15:00:24.518Z,13.20
2019-02-07T15:02:52.007Z,14.20
2019-02-07T15:05:19.468Z,13.48
2019-02-07T15:07:46.903Z,15.58
2019-02-07T15:10:16.083Z,14.75
2019-02-07T15:12:43.493Z,13.62
2019-02-07T15:15:12.565Z,13.45
2019-02-07T15:17:39.996Z,14.18
2019-02-07T15:20:08.361Z,13.93
2019-02-07T15:22:35.766Z,13.85
2019-02-07T15:25:03.347Z,13.50
2019-02-07T15:27:31.293Z,14.43
2019-02-07T15:29:58.792Z,16.93
2019-02-07T15:32:36.839Z,14.00
2019-02-07T15:35:11.306Z,14.60
2019-02-07T15:37:41.273Z,14.25
2019-02-07T15:40:16.873Z,14.70
2019-02-07T15:42:44.880Z,14.50
2019-02-07T15:45:13.896Z,13.40
2019-02-07T15:47:41.342Z,14.23
2019-02-07T15:50:13.436Z,13.18
2019-02-07T15:52:41.908Z,13.88
2019-02-07T15:55:14.963Z,13.78
2019-02-07T15:57:42.651Z,13.78
2019-02-07T16:00:17.373Z,13.43
2019-02-07T16:02:44.902Z,13.18
2019-02-07T16:05:13.116Z,13.60
2019-02-07T16:07:40.498Z,13.93
2019-02-07T16:10:12.248Z,13.05
2019-02-07T16:12:40.736Z,13.50
2019-02-07T16:15:09.492Z,12.82
2019-02-07T16:17:36.892Z,12.37
2019-02-07T16:20:05.871Z,13.18
2019-02-07T16:22:33.316Z,13.62
2019-02-07T16:25:01.023Z,13.65
2019-02-07T16:27:28.481Z,14.78
2019-02-07T16:29:55.941Z,14.55
2019-02-07T16:32:23.427Z,12.40
2019-02-07T16:34:55.364Z,14.13
2019-02-07T16:37:23.398Z,14.45
2019-02-07T16:39:51.250Z,13.05
2019-02-07T16:42:19.390Z,13.75
2019-02-07T16:44:47.620Z,14.85
2019-02-07T16:47:15.469Z,14.68
2019-02-07T16:49:44.953Z,14.78
2019-02-07T16:52:13.374Z,14.95
2019-02-07T16:54:42.806Z,16.12
2019-02-07T16:57:13.677Z,16.35
2019-02-07T16:59:44.096Z,14.53
2019-02-07T17:02:12.259Z,15.20
2019-02-07T17:04:42.096Z,15.20
2019-02-07T17:07:10.568Z,15.13
2019-02-07T17:09:40.176Z,16.60
2019-02-07T17:12:08.630Z,16.17
2019-02-07T17:14:36.166Z,15.18
2019-02-07T17:17:05.447Z,15.50
2019-02-07T17:19:34.227Z,15.63
2019-02-07T17:22:01.685Z,15.05
2019-02-07T17:24:30.680Z,16.05
2019-02-07T17:27:00.004Z,15.85
2019-02-07T17:29:28.752Z,15.65
2019-02-07T17:31:57.017Z,15.43
2019-02-07T17:34:25.666Z,15.88
2019-02-07T17:36:53.139Z,15.65
2019-02-07T17:39:20.580Z,15.68
2019-02-07T17:41:47.973Z,15.93
2019-02-07T17:44:15.468Z,14.95
2019-02-07T17:46:42.913Z,17.07
2019-02-07T17:49:10.366Z,15.90
2019-02-07T17:51:37.780Z,16.12
2019-02-07T17:54:05.382Z,16.67
2019-02-07T17:56:32.844Z,15.70
2019-02-07T17:59:00.254Z,16.20
2019-02-07T18:01:27.683Z,15.75
2019-02-07T18:03:55.260Z,15.75
2019-02-07T18:06:22.656Z,15.95
2019-02-07T18:08:50.105Z,15.08
2019-02-07T18:11:17.506Z,15.90
2019-02-07T18:13:44.919Z,15.90
2019-02-07T18:16:12.413Z,16.32
2019-02-07T18:18:39.817Z,14.45
2019-02-07T18:21:07.622Z,15.28
2019-02-07T18:23:36.934Z,15.35
2019-02-07T18:26:04.622Z,15.38
2019-02-07T18:28:32.016Z,14.28
2019-02-07T18:30:59.432Z,12.10
2019-02-07T18:33:26.840Z,14.75
2019-02-07T18:35:54.265Z,12.53
2019-02-07T18:38:21.661Z,13.43
2019-02-07T18:40:49.112Z,13.25
2019-02-07T18:43:19.235Z,13.98
2019-02-07T18:45:46.647Z,13.70
2019-02-07T18:48:14.106Z,12.65
2019-02-07T18:50:41.623Z,12.85
2019-02-07T18:53:09.052Z,13.50
2019-02-07T18:55:36.827Z,13.38
2019-02-07T18:58:04.727Z,14.40
2019-02-07T19:00:33.288Z,14.43
2019-02-07T19:03:01.687Z,15.20
2019-02-07T19:05:29.261Z,12.30
2019-02-07T19:07:56.645Z,14.68
2019-02-07T19:10:25.614Z,12.18
2019-02-07T19:12:53.055Z,12.75
2019-02-07T19:15:24.728Z,11.70
2019-02-07T19:17:52.354Z,12.78
2019-02-07T19:20:19.741Z,11.90
2019-02-07T19:22:47.200Z,12.50
2019-02-07T19:25:16.340Z,12.95
2019-02-07T19:27:43.911Z,11.90
2019-02-07T19:30:15.829Z,11.70
2019-02-07T19:32:43.280Z,11.90
2019-02-07T19:35:10.757Z,11.40
2019-02-07T19:37:38.183Z,11.15
2019-02-07T19:40:12.967Z,12.05
2019-02-07T19:42:40.428Z,9.90
2019-02-07T19:45:09.380Z,10.15
2019-02-07T19:47:36.797Z,9.23
2019-02-07T19:50:05.754Z,11.90
2019-02-07T19:52:33.199Z,10.63
2019-02-07T19:55:00.725Z,9.98
2019-02-07T19:57:28.130Z,10.10
2019-02-07T20:03:04.917Z,10.35
2019-02-07T20:05:32.327Z,9.73
2019-02-07T20:07:59.764Z,10.20
2019-02-07T20:10:27.965Z,9.80
2019-02-07T20:12:55.684Z,10.50
2019-02-07T20:15:27.363Z,10.82
2019-02-07T20:17:54.723Z,10.70
2019-02-07T20:20:22.174Z,10.80
2019-02-07T20:22:49.642Z,12.85
2019-02-07T20:25:18.025Z,11.75
2019-02-07T20:27:47.252Z,11.18
2019-02-07T20:30:42.394Z,12.47
2019-02-07T20:33:10.005Z,11.55
2019-02-07T20:35:54.859Z,12.10
2019-02-07T20:38:18.006Z,12.45
2019-02-07T20:40:45.524Z,13.43
2019-02-07T20:43:13.102Z,11.78
2019-02-07T20:45:40.595Z,12.53
2019-02-07T20:48:08.181Z,11.55
2019-02-07T20:50:35.667Z,12.60
2019-02-07T20:53:03.154Z,12.78
2019-02-07T20:55:30.937Z,12.10
2019-02-07T20:57:58.450Z,12.05
2019-02-07T21:00:27.317Z,11.90
2019-02-07T21:02:56.124Z,11.95
2019-02-07T21:05:23.823Z,11.50
2019-02-07T21:07:51.269Z,11.48
2019-02-07T21:10:23.142Z,9.73
2019-02-07T21:12:50.740Z,9.88
2019-02-07T21:15:18.975Z,10.10
2019-02-07T21:17:48.044Z,10.05
2019-02-07T21:20:16.794Z,9.15
2019-02-07T21:22:44.381Z,10.18
2019-02-07T21:25:16.256Z,9.50
2019-02-07T21:27:43.873Z,10.90
2019-02-07T21:30:12.866Z,10.35
2019-02-07T21:32:40.272Z,9.25
2019-02-07T21:35:09.446Z,8.75
2019-02-07T21:37:37.128Z,8.35
2019-02-07T21:40:06.106Z,8.10
2019-02-07T21:42:33.537Z,8.00
2019-02-07T21:45:01.040Z,7.83
2019-02-07T21:47:28.598Z,8.00
2019-02-07T21:49:56.008Z,6.05
2019-02-07T21:52:23.408Z,7.08
2019-02-07T21:54:50.837Z,6.40
2019-02-07T21:57:18.280Z,6.35
2019-02-07T21:59:45.721Z,5.62
2019-02-07T22:02:13.761Z,5.58
2019-02-07T22:04:41.195Z,5.30
2019-02-07T22:07:08.613Z,5.12
2019-02-07T22:09:36.261Z,5.00
2019-02-07T22:12:03.994Z,4.65
2019-02-07T22:14:31.903Z,4.00
2019-02-07T22:16:59.626Z,5.00
2019-02-07T22:19:27.149Z,5.25
2019-02-07T22:21:54.573Z,4.20
2019-02-07T22:24:22.028Z,5.25
2019-02-07T22:26:49.404Z,3.67
2019-02-07T22:29:17.114Z,4.58
2019-02-07T22:31:44.550Z,5.28
2019-02-07T22:34:11.962Z,4.45
2019-02-07T22:36:39.401Z,7.20
2019-02-07T22:39:07.115Z,7.47
2019-02-07T22:41:34.615Z,4.20
2019-02-07T22:44:02.007Z,3.95
2019-02-07T22:46:29.421Z,5.72
2019-02-07T22:48:56.850Z,6.28
2019-02-07T22:51:24.282Z,5.60
2019-02-07T22:53:51.684Z,6.58
2019-02-07T22:56:19.108Z,7.83
2019-02-07T22:58:46.515Z,7.37
2019-02-07T23:01:15.582Z,8.48
2019-02-07T23:03:43.049Z,6.15
2019-02-07T23:06:10.823Z,6.15
2019-02-07T23:08:38.240Z,5.95
2019-02-07T23:11:06.330Z,13.22
2019-02-07T23:13:33.775Z,10.08
2019-02-07T23:16:01.212Z,8.50
2019-02-07T23:18:28.719Z,6.20
2019-02-07T23:20:56.186Z,5.83
2019-02-07T23:23:23.784Z,6.35
2019-02-07T23:25:51.244Z,6.70
2019-02-07T23:28:18.722Z,9.13
2019-02-07T23:30:46.287Z,6.87
2019-02-07T23:33:13.754Z,6.15
2019-02-07T23:35:41.182Z,8.70
2019-02-07T23:38:08.659Z,8.20
2019-02-07T23:40:36.465Z,7.35
2019-02-07T23:43:05.174Z,9.70
2019-02-07T23:45:32.603Z,8.75
2019-02-07T23:48:00.022Z,8.20
2019-02-07T23:50:27.500Z,7.35
2019-02-07T23:52:54.899Z,7.33
2019-02-07T23:55:22.334Z,7.25
2019-02-07T23:57:49.728Z,7.62
